UAL5357 KMRY-KSFO
Flight info
| Callsign | UAL5357 |
|---|---|
| Flight time | 0h 18m |
| Altitude | 12000 |
| Route | SANTY EDDYY |
| Aircraft | A319/M-SDE3FGHIRWY/LB1 |
Departure
| Time | 2026-04-20 01:12 |
|---|---|
| Airport | Monterey Regional Airport (KMRY) |
Arrival
| Time | 2026-04-20 01:30 |
|---|---|
| Airport | San Francisco International Airport (KSFO) |
| Time | Latitude | Longitude | Altitude | Speed | Heading |
|---|---|---|---|---|---|
| 2026-04-20 00:52 | 36.58797 | -121.85079 | 193 ft | 0 kts | 239° |
| 2026-04-20 01:06 | 36.58799 | -121.85084 | 193 ft | 1 kts | 282° |
| 2026-04-20 01:07 | 36.58820 | -121.85050 | 193 ft | 12 kts | 69° |
| 2026-04-20 01:07 | 36.58798 | -121.84972 | 201 ft | 10 kts | 117° |
| 2026-04-20 01:07 | 36.58765 | -121.84868 | 207 ft | 13 kts | 109° |
| 2026-04-20 01:07 | 36.58734 | -121.84763 | 214 ft | 12 kts | 110° |
| 2026-04-20 01:08 | 36.58678 | -121.84663 | 210 ft | 19 kts | 122° |
| 2026-04-20 01:08 | 36.58629 | -121.84514 | 216 ft | 18 kts | 112° |
| 2026-04-20 01:08 | 36.58581 | -121.84371 | 224 ft | 17 kts | 114° |
| 2026-04-20 01:08 | 36.58536 | -121.84235 | 228 ft | 17 kts | 110° |
| 2026-04-20 01:09 | 36.58494 | -121.84108 | 234 ft | 15 kts | 111° |
| 2026-04-20 01:09 | 36.58455 | -121.83992 | 240 ft | 14 kts | 113° |
| 2026-04-20 01:09 | 36.58418 | -121.83884 | 245 ft | 13 kts | 114° |
| 2026-04-20 01:09 | 36.58383 | -121.83786 | 249 ft | 12 kts | 114° |
| 2026-04-20 01:10 | 36.58352 | -121.83697 | 253 ft | 11 kts | 112° |
| 2026-04-20 01:10 | 36.58283 | -121.83479 | 262 ft | 15 kts | 100° |
| 2026-04-20 01:10 | 36.58322 | -121.83376 | 265 ft | 13 kts | 2° |
| 2026-04-20 01:11 | 36.58358 | -121.83421 | 263 ft | 0 kts | 294° |
| 2026-04-20 01:11 | 36.58446 | -121.83681 | 253 ft | 69 kts | 291° |
| 2026-04-20 01:11 | 36.58720 | -121.84501 | 218 ft | 135 kts | 292° |
| 2026-04-20 01:11 | 36.59129 | -121.85677 | 715 ft | 153 kts | 290° |
| 2026-04-20 01:12 | 36.59659 | -121.86861 | 1599 ft | 163 kts | 303° |
| 2026-04-20 01:12 | 36.60666 | -121.87701 | 2289 ft | 191 kts | 332° |
| 2026-04-20 01:12 | 36.61955 | -121.88396 | 2930 ft | 210 kts | 334° |
| 2026-04-20 01:12 | 36.63383 | -121.89135 | 3358 ft | 236 kts | 335° |
| 2026-04-20 01:13 | 36.64995 | -121.89923 | 3920 ft | 260 kts | 338° |
| 2026-04-20 01:13 | 36.66751 | -121.90759 | 4617 ft | 280 kts | 338° |
| 2026-04-20 01:13 | 36.68603 | -121.91689 | 5536 ft | 287 kts | 336° |
| 2026-04-20 01:13 | 36.70444 | -121.92636 | 6691 ft | 288 kts | 337° |
| 2026-04-20 01:14 | 36.72325 | -121.93545 | 7704 ft | 292 kts | 338° |
| 2026-04-20 01:14 | 36.74246 | -121.94409 | 8692 ft | 297 kts | 338° |
| 2026-04-20 01:14 | 36.76198 | -121.95425 | 9458 ft | 308 kts | 333° |
| 2026-04-20 01:14 | 36.78142 | -121.96546 | 9953 ft | 314 kts | 332° |
| 2026-04-20 01:15 | 36.80159 | -121.97726 | 10077 ft | 334 kts | 332° |
| 2026-04-20 01:15 | 36.82312 | -121.98965 | 10624 ft | 347 kts | 333° |
| 2026-04-20 01:15 | 36.84555 | -122.00216 | 11386 ft | 354 kts | 333° |
| 2026-04-20 01:15 | 36.86833 | -122.01451 | 11853 ft | 359 kts | 334° |
| 2026-04-20 01:16 | 36.89137 | -122.02677 | 12001 ft | 360 kts | 334° |
| 2026-04-20 01:16 | 36.91447 | -122.03893 | 12034 ft | 360 kts | 334° |
| 2026-04-20 01:16 | 36.93754 | -122.05106 | 12033 ft | 360 kts | 334° |
| 2026-04-20 01:16 | 36.96067 | -122.06325 | 12030 ft | 360 kts | 334° |
| 2026-04-20 01:17 | 36.98451 | -122.07307 | 12032 ft | 363 kts | 347° |
| 2026-04-20 01:17 | 37.00941 | -122.07662 | 12031 ft | 365 kts | 353° |
| 2026-04-20 01:17 | 37.03464 | -122.07946 | 12021 ft | 365 kts | 353° |
| 2026-04-20 01:17 | 37.05994 | -122.08235 | 12020 ft | 365 kts | 353° |
| 2026-04-20 01:18 | 37.08522 | -122.08527 | 12015 ft | 365 kts | 353° |
| 2026-04-20 01:18 | 37.11053 | -122.08819 | 11993 ft | 365 kts | 353° |
| 2026-04-20 01:18 | 37.13577 | -122.09105 | 11988 ft | 365 kts | 353° |
| 2026-04-20 01:18 | 37.16109 | -122.09394 | 11975 ft | 365 kts | 353° |
| 2026-04-20 01:19 | 37.18588 | -122.09675 | 11980 ft | 350 kts | 353° |
| 2026-04-20 01:19 | 37.20956 | -122.09945 | 11980 ft | 335 kts | 353° |
| 2026-04-20 01:19 | 37.23262 | -122.10213 | 11970 ft | 331 kts | 353° |
| 2026-04-20 01:19 | 37.25546 | -122.10482 | 11799 ft | 330 kts | 353° |
| 2026-04-20 01:20 | 37.27819 | -122.10751 | 11518 ft | 324 kts | 353° |
| 2026-04-20 01:20 | 37.30051 | -122.11014 | 11254 ft | 320 kts | 353° |
| 2026-04-20 01:20 | 37.32259 | -122.11272 | 10880 ft | 318 kts | 353° |
| 2026-04-20 01:20 | 37.34454 | -122.11527 | 10550 ft | 315 kts | 353° |
| 2026-04-20 01:21 | 37.36635 | -122.11781 | 10209 ft | 314 kts | 353° |
| 2026-04-20 01:21 | 37.38763 | -122.12306 | 9886 ft | 310 kts | 342° |
| 2026-04-20 01:21 | 37.40860 | -122.13026 | 9145 ft | 316 kts | 342° |
| 2026-04-20 01:21 | 37.42939 | -122.13743 | 8313 ft | 322 kts | 343° |
| 2026-04-20 01:22 | 37.45142 | -122.14504 | 7438 ft | 326 kts | 343° |
| 2026-04-20 01:22 | 37.47346 | -122.15253 | 6598 ft | 329 kts | 345° |
| 2026-04-20 01:22 | 37.49568 | -122.15989 | 5721 ft | 331 kts | 345° |
| 2026-04-20 01:22 | 37.51798 | -122.16727 | 4854 ft | 331 kts | 343° |
| 2026-04-20 01:23 | 37.53806 | -122.18047 | 3968 ft | 325 kts | 315° |
| 2026-04-20 01:23 | 37.55243 | -122.20189 | 3115 ft | 317 kts | 300° |
| 2026-04-20 01:23 | 37.56328 | -122.22574 | 2339 ft | 309 kts | 293° |
| 2026-04-20 01:23 | 37.57211 | -122.24938 | 2067 ft | 285 kts | 292° |
| 2026-04-20 01:24 | 37.58311 | -122.26879 | 1969 ft | 265 kts | 318° |
| 2026-04-20 01:24 | 37.59886 | -122.27823 | 1966 ft | 243 kts | 349° |
| 2026-04-20 01:24 | 37.61474 | -122.27603 | 1964 ft | 222 kts | 25° |
| 2026-04-20 01:24 | 37.62548 | -122.26439 | 1999 ft | 190 kts | 61° |
| 2026-04-20 01:25 | 37.62932 | -122.24988 | 2007 ft | 161 kts | 91° |
| 2026-04-20 01:25 | 37.62808 | -122.23720 | 2006 ft | 139 kts | 115° |
| 2026-04-20 01:25 | 37.62345 | -122.22677 | 1989 ft | 135 kts | 136° |
| 2026-04-20 01:25 | 37.61638 | -122.21942 | 1950 ft | 131 kts | 156° |
| 2026-04-20 01:26 | 37.60790 | -122.21575 | 1896 ft | 129 kts | 175° |
| 2026-04-20 01:26 | 37.59903 | -122.21602 | 1854 ft | 128 kts | 192° |
| 2026-04-20 01:26 | 37.59080 | -122.22004 | 1838 ft | 127 kts | 211° |
| 2026-04-20 01:26 | 37.58414 | -122.22746 | 1824 ft | 129 kts | 231° |
| 2026-04-20 01:27 | 37.57969 | -122.23713 | 1824 ft | 131 kts | 242° |
| 2026-04-20 01:27 | 37.57549 | -122.24748 | 1751 ft | 130 kts | 240° |
| 2026-04-20 01:27 | 37.57343 | -122.25836 | 1621 ft | 133 kts | 271° |
| 2026-04-20 01:27 | 37.57668 | -122.26941 | 1496 ft | 137 kts | 296° |
| 2026-04-20 01:28 | 37.58118 | -122.27998 | 1370 ft | 136 kts | 295° |
| 2026-04-20 01:28 | 37.58559 | -122.29051 | 1212 ft | 136 kts | 295° |
| 2026-04-20 01:28 | 37.58998 | -122.30100 | 1031 ft | 135 kts | 294° |
| 2026-04-20 01:28 | 37.59435 | -122.31141 | 844 ft | 134 kts | 293° |
| 2026-04-20 01:29 | 37.59863 | -122.32171 | 681 ft | 134 kts | 295° |
| 2026-04-20 01:29 | 37.60359 | -122.33148 | 468 ft | 129 kts | 280° |
| 2026-04-20 01:29 | 37.60759 | -122.34179 | 388 ft | 131 kts | 285° |
| 2026-04-20 01:29 | 37.61164 | -122.35210 | 165 ft | 129 kts | 280° |
| 2026-04-20 01:30 | 37.61575 | -122.36215 | 29 ft | 126 kts | 286° |
| 2026-04-20 01:30 | 37.61904 | -122.37044 | 18 ft | 86 kts | 298° |
| 2026-04-20 01:30 | 37.62115 | -122.37592 | 19 ft | 55 kts | 296° |
| 2026-04-20 01:30 | 37.62221 | -122.37958 | 24 ft | 34 kts | 276° |
| 2026-04-20 01:31 | 37.62196 | -122.38223 | 25 ft | 19 kts | 212° |
| 2026-04-20 01:31 | 37.62064 | -122.38285 | 23 ft | 18 kts | 200° |
| 2026-04-20 01:31 | 37.61992 | -122.38264 | 23 ft | 13 kts | 119° |
| 2026-04-20 01:31 | 37.61935 | -122.38208 | 22 ft | 10 kts | 198° |
| 2026-04-20 01:32 | 37.61917 | -122.38218 | 23 ft | 3 kts | 208° |
| 2026-04-20 01:32 | 37.61863 | -122.38263 | 19 ft | 15 kts | 217° |
| 2026-04-20 01:32 | 37.61856 | -122.38270 | 19 ft | 0 kts | 219° |
| 2026-04-20 01:33 | 37.61844 | -122.38284 | 19 ft | 8 kts | 223° |
| 2026-04-20 01:33 | 37.61798 | -122.38314 | 16 ft | 4 kts | 148° |
| 2026-04-20 01:34 | 37.61779 | -122.38296 | 17 ft | 1 kts | 133° |
| 2026-04-20 01:34 | 37.61775 | -122.38290 | 17 ft | 1 kts | 134° |
| 2026-04-20 01:34 | 37.61774 | -122.38288 | 17 ft | 1 kts | 134° |
| 2026-04-20 01:34 | 37.61772 | -122.38286 | 17 ft | 0 kts | 134° |